N620DF BIRF-BISL
Flight info
| Callsign | N620DF |
|---|---|
| Flight time | 1h 29m |
| Altitude | 7000 |
| Route | 642751N0204455W 641028N0184722W DCT ING |
| Aircraft | PA24/L-SDGRY/S |
Departure
| Time | 2026-05-08 02:44 |
|---|---|
| Airport | Rif Airport (BIRF) |
Arrival
| Time | 2026-05-08 04:13 |
|---|---|
| Airport | Skaftafell Airport (BISL) |
| Time | Latitude | Longitude | Altitude | Speed | Heading |
|---|---|---|---|---|---|
| 2026-05-08 02:41 | 64.91211 | -23.81824 | 17 ft | 0 kts | 137° |
| 2026-05-08 02:42 | 64.91174 | -23.81755 | 19 ft | 11 kts | 170° |
| 2026-05-08 02:42 | 64.91017 | -23.82028 | 17 ft | 32 kts | 222° |
| 2026-05-08 02:43 | 64.90958 | -23.82147 | 27 ft | 5 kts | 83° |
| 2026-05-08 02:43 | 64.91030 | -23.82017 | 17 ft | 28 kts | 38° |
| 2026-05-08 02:43 | 64.91268 | -23.81550 | 39 ft | 55 kts | 38° |
| 2026-05-08 02:43 | 64.91509 | -23.80801 | 196 ft | 61 kts | 69° |
| 2026-05-08 02:44 | 64.91448 | -23.79712 | 350 ft | 72 kts | 103° |
| 2026-05-08 02:44 | 64.91156 | -23.78680 | 574 ft | 80 kts | 101° |
| 2026-05-08 02:44 | 64.90947 | -23.77551 | 793 ft | 72 kts | 93° |
| 2026-05-08 02:44 | 64.90766 | -23.76415 | 967 ft | 77 kts | 94° |
| 2026-05-08 02:45 | 64.90566 | -23.75280 | 1194 ft | 76 kts | 95° |
| 2026-05-08 02:45 | 64.90355 | -23.74110 | 1404 ft | 76 kts | 98° |
| 2026-05-08 02:45 | 64.90130 | -23.72963 | 1594 ft | 79 kts | 99° |
| 2026-05-08 02:45 | 64.89883 | -23.71822 | 1840 ft | 78 kts | 101° |
| 2026-05-08 02:46 | 64.89619 | -23.70677 | 2037 ft | 80 kts | 100° |
| 2026-05-08 02:46 | 64.89372 | -23.69531 | 2248 ft | 79 kts | 98° |
| 2026-05-08 02:46 | 64.89147 | -23.68362 | 2450 ft | 77 kts | 95° |
| 2026-05-08 02:46 | 64.88949 | -23.67197 | 2656 ft | 77 kts | 92° |
| 2026-05-08 02:47 | 64.88781 | -23.66022 | 2860 ft | 75 kts | 89° |
| 2026-05-08 02:47 | 64.88651 | -23.64825 | 3089 ft | 75 kts | 86° |
| 2026-05-08 02:47 | 64.88543 | -23.63649 | 3310 ft | 74 kts | 84° |
| 2026-05-08 02:47 | 64.88459 | -23.62458 | 3490 ft | 72 kts | 83° |
| 2026-05-08 02:48 | 64.88394 | -23.61283 | 3640 ft | 73 kts | 82° |
| 2026-05-08 02:48 | 64.88331 | -23.60128 | 3798 ft | 72 kts | 83° |
| 2026-05-08 02:48 | 64.88262 | -23.58949 | 3930 ft | 73 kts | 83° |
| 2026-05-08 02:48 | 64.88181 | -23.57779 | 4082 ft | 73 kts | 85° |
| 2026-05-08 02:49 | 64.88089 | -23.56595 | 4160 ft | 74 kts | 87° |
| 2026-05-08 02:49 | 64.87972 | -23.55413 | 4242 ft | 75 kts | 89° |
| 2026-05-08 02:49 | 64.87830 | -23.54229 | 4338 ft | 76 kts | 91° |
| 2026-05-08 02:49 | 64.87663 | -23.53032 | 4448 ft | 78 kts | 94° |
| 2026-05-08 02:50 | 64.87474 | -23.51827 | 4579 ft | 79 kts | 96° |
| 2026-05-08 02:50 | 64.87259 | -23.50628 | 4706 ft | 79 kts | 98° |
| 2026-05-08 02:50 | 64.87105 | -23.49828 | 4784 ft | 80 kts | 98° |
| 2026-05-08 02:50 | 64.86879 | -23.48628 | 4881 ft | 80 kts | 97° |
| 2026-05-08 02:51 | 64.86665 | -23.47435 | 5002 ft | 79 kts | 95° |
| 2026-05-08 02:51 | 64.86468 | -23.46235 | 5107 ft | 79 kts | 94° |
| 2026-05-08 02:51 | 64.86306 | -23.45015 | 5288 ft | 84 kts | 91° |
| 2026-05-08 02:51 | 64.86154 | -23.43642 | 5495 ft | 85 kts | 91° |
| 2026-05-08 02:52 | 64.85991 | -23.42214 | 5648 ft | 96 kts | 91° |
| 2026-05-08 02:52 | 64.85829 | -23.40743 | 5956 ft | 89 kts | 92° |
| 2026-05-08 02:52 | 64.85657 | -23.39279 | 6099 ft | 96 kts | 92° |
| 2026-05-08 02:52 | 64.85480 | -23.37818 | 6378 ft | 92 kts | 92° |
| 2026-05-08 02:53 | 64.85311 | -23.36344 | 6551 ft | 95 kts | 91° |
| 2026-05-08 02:53 | 64.85139 | -23.34851 | 6735 ft | 95 kts | 93° |
| 2026-05-08 02:53 | 64.84950 | -23.33282 | 6858 ft | 103 kts | 95° |
| 2026-05-08 02:53 | 64.84746 | -23.31695 | 7023 ft | 105 kts | 96° |
| 2026-05-08 02:54 | 64.84515 | -23.29896 | 7006 ft | 124 kts | 98° |
| 2026-05-08 02:54 | 64.84273 | -23.27848 | 7006 ft | 134 kts | 98° |
| 2026-05-08 02:54 | 64.83992 | -23.25725 | 7000 ft | 138 kts | 101° |
| 2026-05-08 02:54 | 64.83678 | -23.23562 | 6982 ft | 142 kts | 100° |
| 2026-05-08 02:55 | 64.83366 | -23.21380 | 6999 ft | 140 kts | 98° |
| 2026-05-08 02:55 | 64.82835 | -23.16910 | 6993 ft | 142 kts | 97° |
| 2026-05-08 02:55 | 64.82586 | -23.14658 | 6993 ft | 144 kts | 98° |
| 2026-05-08 02:56 | 64.82313 | -23.12386 | 6993 ft | 146 kts | 99° |
| 2026-05-08 02:56 | 64.82023 | -23.10122 | 6993 ft | 143 kts | 100° |
| 2026-05-08 02:56 | 64.81715 | -23.07880 | 6993 ft | 145 kts | 101° |
| 2026-05-08 02:56 | 64.81386 | -23.05654 | 6993 ft | 143 kts | 101° |
| 2026-05-08 02:57 | 64.81033 | -23.03456 | 6993 ft | 145 kts | 100° |
| 2026-05-08 02:57 | 64.80700 | -23.01213 | 6991 ft | 146 kts | 103° |
| 2026-05-08 02:57 | 64.80373 | -22.98976 | 6990 ft | 145 kts | 100° |
| 2026-05-08 02:57 | 64.80087 | -22.96683 | 6987 ft | 146 kts | 98° |
| 2026-05-08 02:58 | 64.79825 | -22.94384 | 6994 ft | 147 kts | 97° |
| 2026-05-08 02:58 | 64.79572 | -22.92049 | 6991 ft | 149 kts | 95° |
| 2026-05-08 02:58 | 64.79316 | -22.89719 | 6987 ft | 148 kts | 97° |
| 2026-05-08 02:58 | 64.79052 | -22.87439 | 6990 ft | 146 kts | 97° |
| 2026-05-08 02:59 | 64.78771 | -22.85125 | 6985 ft | 148 kts | 98° |
| 2026-05-08 02:59 | 64.78471 | -22.82819 | 6994 ft | 148 kts | 99° |
| 2026-05-08 02:59 | 64.78161 | -22.80499 | 6987 ft | 150 kts | 100° |
| 2026-05-08 02:59 | 64.77837 | -22.78189 | 6994 ft | 149 kts | 101° |
| 2026-05-08 03:00 | 64.77503 | -22.75898 | 6985 ft | 149 kts | 102° |
| 2026-05-08 03:00 | 64.77160 | -22.73614 | 6984 ft | 148 kts | 102° |
| 2026-05-08 03:00 | 64.76810 | -22.71342 | 6980 ft | 149 kts | 101° |
| 2026-05-08 03:00 | 64.76464 | -22.69057 | 6972 ft | 149 kts | 102° |
| 2026-05-08 03:01 | 64.76137 | -22.66750 | 6973 ft | 149 kts | 99° |
| 2026-05-08 03:01 | 64.75857 | -22.64407 | 6977 ft | 150 kts | 98° |
| 2026-05-08 03:01 | 64.75594 | -22.62035 | 6982 ft | 151 kts | 98° |
| 2026-05-08 03:01 | 64.75550 | -22.61661 | 6982 ft | 151 kts | 98° |
| 2026-05-08 03:02 | 64.75294 | -22.59670 | 6982 ft | 152 kts | 99° |
| 2026-05-08 03:02 | 64.74977 | -22.57327 | 6973 ft | 147 kts | 100° |
| 2026-05-08 03:02 | 64.74648 | -22.55099 | 6965 ft | 142 kts | 99° |
| 2026-05-08 03:02 | 64.74353 | -22.52906 | 6968 ft | 140 kts | 98° |
| 2026-05-08 03:03 | 64.74070 | -22.50746 | 6961 ft | 137 kts | 98° |
| 2026-05-08 03:03 | 64.73799 | -22.48601 | 6965 ft | 137 kts | 99° |
| 2026-05-08 03:03 | 64.73525 | -22.46479 | 6965 ft | 136 kts | 99° |
| 2026-05-08 03:03 | 64.73242 | -22.44394 | 6968 ft | 134 kts | 99° |
| 2026-05-08 03:04 | 64.72967 | -22.42309 | 6971 ft | 134 kts | 100° |
| 2026-05-08 03:04 | 64.72670 | -22.40257 | 6984 ft | 132 kts | 99° |
| 2026-05-08 03:04 | 64.72399 | -22.38205 | 6978 ft | 133 kts | 99° |
| 2026-05-08 03:04 | 64.72150 | -22.36130 | 6977 ft | 132 kts | 99° |
| 2026-05-08 03:05 | 64.71886 | -22.34071 | 6972 ft | 133 kts | 101° |
| 2026-05-08 03:05 | 64.71617 | -22.31998 | 6970 ft | 133 kts | 102° |
| 2026-05-08 03:05 | 64.71317 | -22.29954 | 6981 ft | 132 kts | 103° |
| 2026-05-08 03:05 | 64.70992 | -22.27932 | 6974 ft | 134 kts | 103° |
| 2026-05-08 03:06 | 64.70668 | -22.25902 | 6970 ft | 133 kts | 103° |
| 2026-05-08 03:06 | 64.70366 | -22.23858 | 6968 ft | 132 kts | 101° |
| 2026-05-08 03:06 | 64.70083 | -22.21808 | 6964 ft | 133 kts | 100° |
| 2026-05-08 03:06 | 64.69820 | -22.19751 | 6966 ft | 132 kts | 99° |
| 2026-05-08 03:07 | 64.69572 | -22.17710 | 6958 ft | 133 kts | 99° |
| 2026-05-08 03:07 | 64.69324 | -22.15628 | 6959 ft | 133 kts | 100° |
| 2026-05-08 03:07 | 64.69046 | -22.13576 | 6965 ft | 133 kts | 100° |
| 2026-05-08 03:07 | 64.68773 | -22.11515 | 6963 ft | 132 kts | 101° |
| 2026-05-08 03:08 | 64.68479 | -22.09495 | 6969 ft | 131 kts | 101° |
| 2026-05-08 03:08 | 64.68185 | -22.07472 | 6962 ft | 132 kts | 101° |
| 2026-05-08 03:08 | 64.67899 | -22.05428 | 6964 ft | 132 kts | 101° |
| 2026-05-08 03:08 | 64.67610 | -22.03388 | 6966 ft | 133 kts | 101° |
| 2026-05-08 03:09 | 64.67318 | -22.01329 | 6967 ft | 133 kts | 102° |
| 2026-05-08 03:09 | 64.67027 | -21.99279 | 6967 ft | 132 kts | 102° |
| 2026-05-08 03:09 | 64.66737 | -21.97234 | 6969 ft | 133 kts | 102° |
| 2026-05-08 03:09 | 64.66450 | -21.95189 | 6969 ft | 132 kts | 101° |
| 2026-05-08 03:10 | 64.66161 | -21.93162 | 6969 ft | 131 kts | 101° |
| 2026-05-08 03:10 | 64.65875 | -21.91117 | 6969 ft | 133 kts | 101° |
| 2026-05-08 03:10 | 64.65594 | -21.89069 | 6962 ft | 132 kts | 101° |
| 2026-05-08 03:10 | 64.65321 | -21.87007 | 6960 ft | 134 kts | 101° |
| 2026-05-08 03:11 | 64.65048 | -21.84937 | 6960 ft | 133 kts | 101° |
| 2026-05-08 03:11 | 64.64758 | -21.82897 | 6961 ft | 133 kts | 101° |
| 2026-05-08 03:11 | 64.64459 | -21.80856 | 6966 ft | 132 kts | 102° |
| 2026-05-08 03:11 | 64.64151 | -21.78825 | 6969 ft | 134 kts | 101° |
| 2026-05-08 03:12 | 64.63837 | -21.76779 | 6960 ft | 134 kts | 101° |
| 2026-05-08 03:12 | 64.63537 | -21.74718 | 6961 ft | 134 kts | 102° |
| 2026-05-08 03:12 | 64.63246 | -21.72652 | 6956 ft | 134 kts | 99° |
| 2026-05-08 03:12 | 64.62996 | -21.70556 | 6961 ft | 134 kts | 99° |
| 2026-05-08 03:13 | 64.62728 | -21.68484 | 6954 ft | 133 kts | 99° |
| 2026-05-08 03:13 | 64.62458 | -21.66420 | 6957 ft | 133 kts | 100° |
| 2026-05-08 03:13 | 64.62174 | -21.64373 | 6966 ft | 132 kts | 99° |
| 2026-05-08 03:13 | 64.61870 | -21.62354 | 6964 ft | 133 kts | 101° |
| 2026-05-08 03:14 | 64.61578 | -21.60304 | 6961 ft | 134 kts | 102° |
| 2026-05-08 03:14 | 64.61275 | -21.58258 | 6960 ft | 134 kts | 101° |
| 2026-05-08 03:14 | 64.60967 | -21.56203 | 6962 ft | 134 kts | 102° |
| 2026-05-08 03:14 | 64.60668 | -21.54143 | 6959 ft | 135 kts | 101° |
| 2026-05-08 03:15 | 64.60362 | -21.52100 | 6961 ft | 134 kts | 101° |
| 2026-05-08 03:15 | 64.60054 | -21.50056 | 6959 ft | 134 kts | 101° |
| 2026-05-08 03:15 | 64.59747 | -21.48043 | 6957 ft | 134 kts | 101° |
| 2026-05-08 03:15 | 64.59440 | -21.45988 | 6965 ft | 135 kts | 100° |
| 2026-05-08 03:16 | 64.59166 | -21.43891 | 6963 ft | 135 kts | 101° |
| 2026-05-08 03:16 | 64.58865 | -21.41816 | 6961 ft | 136 kts | 101° |
| 2026-05-08 03:16 | 64.58588 | -21.39701 | 6963 ft | 137 kts | 100° |
| 2026-05-08 03:16 | 64.58319 | -21.37593 | 6967 ft | 135 kts | 99° |
| 2026-05-08 03:17 | 64.58051 | -21.35494 | 6964 ft | 136 kts | 100° |
| 2026-05-08 03:17 | 64.57770 | -21.33414 | 6952 ft | 135 kts | 101° |
| 2026-05-08 03:17 | 64.57472 | -21.31348 | 6952 ft | 134 kts | 102° |
| 2026-05-08 03:17 | 64.57169 | -21.29274 | 6949 ft | 135 kts | 102° |
| 2026-05-08 03:18 | 64.56869 | -21.27207 | 6949 ft | 135 kts | 102° |
| 2026-05-08 03:18 | 64.56566 | -21.25133 | 6949 ft | 136 kts | 104° |
| 2026-05-08 03:18 | 64.56242 | -21.23075 | 6950 ft | 135 kts | 104° |
| 2026-05-08 03:18 | 64.55897 | -21.21057 | 6951 ft | 134 kts | 104° |
| 2026-05-08 03:19 | 64.55572 | -21.19022 | 6951 ft | 134 kts | 103° |
| 2026-05-08 03:19 | 64.55248 | -21.17012 | 6951 ft | 132 kts | 103° |
| 2026-05-08 03:19 | 64.54929 | -21.15006 | 6946 ft | 132 kts | 102° |
| 2026-05-08 03:19 | 64.54635 | -21.12972 | 6949 ft | 132 kts | 102° |
| 2026-05-08 03:20 | 64.54355 | -21.10933 | 6949 ft | 133 kts | 101° |
| 2026-05-08 03:20 | 64.54081 | -21.08883 | 6949 ft | 132 kts | 101° |
| 2026-05-08 03:20 | 64.53807 | -21.06831 | 6952 ft | 132 kts | 101° |
| 2026-05-08 03:20 | 64.53528 | -21.04789 | 6952 ft | 133 kts | 101° |
| 2026-05-08 03:21 | 64.53239 | -21.02753 | 6952 ft | 132 kts | 101° |
| 2026-05-08 03:21 | 64.52939 | -21.00740 | 6952 ft | 132 kts | 101° |
| 2026-05-08 03:21 | 64.52647 | -20.98712 | 6952 ft | 133 kts | 102° |
| 2026-05-08 03:21 | 64.52350 | -20.96683 | 6949 ft | 133 kts | 102° |
| 2026-05-08 03:22 | 64.52050 | -20.94650 | 6949 ft | 134 kts | 103° |
| 2026-05-08 03:22 | 64.51756 | -20.92607 | 6949 ft | 133 kts | 103° |
| 2026-05-08 03:22 | 64.51443 | -20.90598 | 6949 ft | 132 kts | 103° |
| 2026-05-08 03:22 | 64.51137 | -20.88572 | 6944 ft | 133 kts | 103° |
| 2026-05-08 03:23 | 64.50813 | -20.86566 | 6944 ft | 133 kts | 103° |
| 2026-05-08 03:23 | 64.50494 | -20.84559 | 6944 ft | 133 kts | 102° |
| 2026-05-08 03:23 | 64.50203 | -20.82521 | 6943 ft | 132 kts | 102° |
| 2026-05-08 03:23 | 64.49910 | -20.80513 | 6943 ft | 131 kts | 102° |
| 2026-05-08 03:24 | 64.49630 | -20.78498 | 6942 ft | 131 kts | 101° |
| 2026-05-08 03:24 | 64.49363 | -20.76503 | 6942 ft | 129 kts | 101° |
| 2026-05-08 03:24 | 64.49073 | -20.74541 | 6941 ft | 130 kts | 102° |
| 2026-05-08 03:24 | 64.48780 | -20.72549 | 6940 ft | 130 kts | 102° |
| 2026-05-08 03:25 | 64.48480 | -20.70576 | 6940 ft | 128 kts | 103° |
| 2026-05-08 03:25 | 64.48177 | -20.68624 | 6941 ft | 130 kts | 103° |
| 2026-05-08 03:25 | 64.47870 | -20.66640 | 6953 ft | 133 kts | 103° |
| 2026-05-08 03:25 | 64.47575 | -20.64579 | 6947 ft | 135 kts | 103° |
| 2026-05-08 03:26 | 64.47275 | -20.62506 | 6946 ft | 136 kts | 103° |
| 2026-05-08 03:26 | 64.46965 | -20.60431 | 6944 ft | 136 kts | 104° |
| 2026-05-08 03:26 | 64.46645 | -20.58353 | 6948 ft | 137 kts | 104° |
| 2026-05-08 03:26 | 64.46318 | -20.56274 | 6945 ft | 138 kts | 105° |
| 2026-05-08 03:27 | 64.45988 | -20.54189 | 6943 ft | 138 kts | 105° |
| 2026-05-08 03:27 | 64.45660 | -20.52098 | 6945 ft | 138 kts | 105° |
| 2026-05-08 03:27 | 64.45338 | -20.50028 | 6945 ft | 139 kts | 104° |
| 2026-05-08 03:27 | 64.45013 | -20.47925 | 6946 ft | 139 kts | 104° |
| 2026-05-08 03:28 | 64.44691 | -20.45822 | 6943 ft | 138 kts | 104° |
| 2026-05-08 03:28 | 64.44374 | -20.43722 | 6933 ft | 138 kts | 104° |
| 2026-05-08 03:28 | 64.44057 | -20.41617 | 6935 ft | 138 kts | 104° |
| 2026-05-08 03:28 | 64.43743 | -20.39513 | 6935 ft | 139 kts | 104° |
| 2026-05-08 03:29 | 64.43416 | -20.37420 | 6938 ft | 138 kts | 104° |
| 2026-05-08 03:29 | 64.43097 | -20.35320 | 6937 ft | 138 kts | 105° |
| 2026-05-08 03:29 | 64.42765 | -20.33235 | 6940 ft | 138 kts | 104° |
| 2026-05-08 03:29 | 64.42455 | -20.31118 | 6936 ft | 139 kts | 104° |
| 2026-05-08 03:30 | 64.41822 | -20.26926 | 6937 ft | 137 kts | 104° |
| 2026-05-08 03:30 | 64.41171 | -20.22773 | 6933 ft | 138 kts | 103° |
| 2026-05-08 03:31 | 64.40561 | -20.18569 | 6934 ft | 138 kts | 103° |
| 2026-05-08 03:31 | 64.39937 | -20.14383 | 6938 ft | 138 kts | 104° |
| 2026-05-08 03:32 | 64.39609 | -20.12312 | 6937 ft | 138 kts | 104° |
| 2026-05-08 03:32 | 64.39289 | -20.10228 | 6939 ft | 137 kts | 104° |
| 2026-05-08 03:32 | 64.38940 | -20.08175 | 6938 ft | 137 kts | 105° |
| 2026-05-08 03:32 | 64.38585 | -20.06124 | 6939 ft | 138 kts | 104° |
| 2026-05-08 03:33 | 64.38266 | -20.04041 | 6938 ft | 137 kts | 103° |
| 2026-05-08 03:33 | 64.37955 | -20.01965 | 6937 ft | 137 kts | 102° |
| 2026-05-08 03:33 | 64.37664 | -19.99865 | 6929 ft | 137 kts | 103° |
| 2026-05-08 03:33 | 64.37350 | -19.97792 | 6930 ft | 137 kts | 104° |
| 2026-05-08 03:34 | 64.37057 | -19.96011 | 6930 ft | 137 kts | 104° |
| 2026-05-08 03:34 | 64.36717 | -19.93915 | 6930 ft | 137 kts | 104° |
| 2026-05-08 03:34 | 64.36380 | -19.91884 | 6928 ft | 137 kts | 104° |
| 2026-05-08 03:34 | 64.36043 | -19.89824 | 6930 ft | 137 kts | 104° |
| 2026-05-08 03:35 | 64.35718 | -19.87751 | 6930 ft | 137 kts | 104° |
| 2026-05-08 03:35 | 64.35397 | -19.85675 | 6931 ft | 138 kts | 104° |
| 2026-05-08 03:35 | 64.35093 | -19.83575 | 6928 ft | 138 kts | 104° |
| 2026-05-08 03:35 | 64.34777 | -19.81489 | 6929 ft | 137 kts | 104° |
| 2026-05-08 03:36 | 64.34457 | -19.79408 | 6934 ft | 137 kts | 105° |
| 2026-05-08 03:36 | 64.34114 | -19.77349 | 6936 ft | 138 kts | 105° |
| 2026-05-08 03:36 | 64.33764 | -19.75293 | 6931 ft | 138 kts | 104° |
| 2026-05-08 03:36 | 64.33433 | -19.73223 | 6932 ft | 138 kts | 103° |
| 2026-05-08 03:37 | 64.33126 | -19.71128 | 6934 ft | 138 kts | 102° |
| 2026-05-08 03:37 | 64.32835 | -19.69021 | 6933 ft | 137 kts | 103° |
| 2026-05-08 03:37 | 64.32527 | -19.66928 | 6935 ft | 138 kts | 104° |
| 2026-05-08 03:37 | 64.32186 | -19.64858 | 6937 ft | 139 kts | 105° |
| 2026-05-08 03:38 | 64.31842 | -19.62779 | 6936 ft | 139 kts | 104° |
| 2026-05-08 03:38 | 64.31492 | -19.60716 | 6937 ft | 138 kts | 105° |
| 2026-05-08 03:38 | 64.31135 | -19.58667 | 6939 ft | 138 kts | 105° |
| 2026-05-08 03:38 | 64.30789 | -19.56605 | 6936 ft | 138 kts | 106° |
| 2026-05-08 03:39 | 64.30423 | -19.54574 | 6937 ft | 137 kts | 102° |
| 2026-05-08 03:39 | 64.30101 | -19.52508 | 6934 ft | 137 kts | 103° |
| 2026-05-08 03:39 | 64.29772 | -19.50464 | 6929 ft | 135 kts | 102° |
| 2026-05-08 03:39 | 64.29436 | -19.48445 | 6930 ft | 135 kts | 101° |
| 2026-05-08 03:40 | 64.29118 | -19.46417 | 6929 ft | 134 kts | 101° |
| 2026-05-08 03:40 | 64.28806 | -19.44394 | 6930 ft | 133 kts | 100° |
| 2026-05-08 03:40 | 64.28498 | -19.42376 | 6933 ft | 134 kts | 99° |
| 2026-05-08 03:40 | 64.28212 | -19.40340 | 6933 ft | 133 kts | 100° |
| 2026-05-08 03:41 | 64.27936 | -19.38278 | 6938 ft | 136 kts | 101° |
| 2026-05-08 03:41 | 64.27673 | -19.36179 | 6937 ft | 137 kts | 102° |
| 2026-05-08 03:41 | 64.27357 | -19.34122 | 6937 ft | 136 kts | 104° |
| 2026-05-08 03:41 | 64.27028 | -19.32067 | 6936 ft | 137 kts | 103° |
| 2026-05-08 03:42 | 64.26675 | -19.30049 | 6935 ft | 136 kts | 105° |
| 2026-05-08 03:42 | 64.26295 | -19.28057 | 6935 ft | 136 kts | 106° |
| 2026-05-08 03:42 | 64.25915 | -19.26056 | 6935 ft | 137 kts | 107° |
| 2026-05-08 03:42 | 64.25515 | -19.24068 | 6936 ft | 137 kts | 107° |
| 2026-05-08 03:43 | 64.25146 | -19.22046 | 6936 ft | 137 kts | 106° |
| 2026-05-08 03:43 | 64.24805 | -19.20004 | 6936 ft | 137 kts | 103° |
| 2026-05-08 03:43 | 64.24492 | -19.17948 | 6936 ft | 136 kts | 102° |
| 2026-05-08 03:43 | 64.24196 | -19.15914 | 6936 ft | 136 kts | 102° |
| 2026-05-08 03:44 | 64.23897 | -19.13863 | 6935 ft | 135 kts | 101° |
| 2026-05-08 03:44 | 64.23585 | -19.11828 | 6928 ft | 136 kts | 102° |
| 2026-05-08 03:44 | 64.23287 | -19.09767 | 6927 ft | 136 kts | 102° |
| 2026-05-08 03:44 | 64.22983 | -19.07717 | 6927 ft | 136 kts | 101° |
| 2026-05-08 03:45 | 64.22689 | -19.05647 | 6928 ft | 136 kts | 103° |
| 2026-05-08 03:45 | 64.22360 | -19.03605 | 6927 ft | 137 kts | 104° |
| 2026-05-08 03:45 | 64.22002 | -19.01589 | 6928 ft | 137 kts | 106° |
| 2026-05-08 03:45 | 64.21633 | -18.99574 | 6922 ft | 137 kts | 106° |
| 2026-05-08 03:46 | 64.21260 | -18.97564 | 6922 ft | 137 kts | 106° |
| 2026-05-08 03:46 | 64.20876 | -18.95568 | 6922 ft | 137 kts | 106° |
| 2026-05-08 03:46 | 64.20519 | -18.93546 | 6925 ft | 136 kts | 106° |
| 2026-05-08 03:46 | 64.20147 | -18.91547 | 6924 ft | 136 kts | 106° |
| 2026-05-08 03:47 | 64.19803 | -18.89515 | 6925 ft | 137 kts | 104° |
| 2026-05-08 03:47 | 64.19490 | -18.87464 | 6925 ft | 136 kts | 102° |
| 2026-05-08 03:47 | 64.19181 | -18.85424 | 6926 ft | 136 kts | 102° |
| 2026-05-08 03:47 | 64.18881 | -18.83375 | 6923 ft | 135 kts | 102° |
| 2026-05-08 03:48 | 64.18574 | -18.81340 | 6922 ft | 135 kts | 101° |
| 2026-05-08 03:48 | 64.18273 | -18.79295 | 6922 ft | 136 kts | 103° |
| 2026-05-08 03:48 | 64.17965 | -18.77255 | 6922 ft | 135 kts | 102° |
| 2026-05-08 03:48 | 64.17662 | -18.75207 | 6922 ft | 136 kts | 102° |
| 2026-05-08 03:49 | 64.17346 | -18.73158 | 6922 ft | 137 kts | 104° |
| 2026-05-08 03:49 | 64.16983 | -18.71153 | 6922 ft | 136 kts | 107° |
| 2026-05-08 03:49 | 64.16595 | -18.69161 | 6922 ft | 137 kts | 107° |
| 2026-05-08 03:49 | 64.16207 | -18.67199 | 6906 ft | 136 kts | 107° |
| 2026-05-08 03:50 | 64.15808 | -18.65230 | 6906 ft | 136 kts | 106° |
| 2026-05-08 03:50 | 64.15442 | -18.63221 | 6907 ft | 137 kts | 105° |
| 2026-05-08 03:50 | 64.15099 | -18.61179 | 6899 ft | 137 kts | 102° |
| 2026-05-08 03:50 | 64.14802 | -18.59110 | 6897 ft | 137 kts | 102° |
| 2026-05-08 03:51 | 64.14505 | -18.57045 | 6897 ft | 136 kts | 103° |
| 2026-05-08 03:51 | 64.14173 | -18.55012 | 6898 ft | 136 kts | 103° |
| 2026-05-08 03:51 | 64.13861 | -18.52955 | 6898 ft | 136 kts | 103° |
| 2026-05-08 03:51 | 64.13524 | -18.50935 | 6898 ft | 136 kts | 104° |
| 2026-05-08 03:52 | 64.13167 | -18.48935 | 6897 ft | 136 kts | 104° |
| 2026-05-08 03:52 | 64.12827 | -18.46911 | 6898 ft | 136 kts | 104° |
| 2026-05-08 03:52 | 64.12503 | -18.44827 | 6900 ft | 141 kts | 104° |
| 2026-05-08 03:52 | 64.12176 | -18.42709 | 6899 ft | 141 kts | 105° |
| 2026-05-08 03:53 | 64.11830 | -18.40596 | 6899 ft | 143 kts | 107° |
| 2026-05-08 03:53 | 64.11438 | -18.38485 | 6897 ft | 144 kts | 108° |
| 2026-05-08 03:53 | 64.11057 | -18.36366 | 6900 ft | 145 kts | 108° |
| 2026-05-08 03:53 | 64.10663 | -18.34251 | 6899 ft | 144 kts | 108° |
| 2026-05-08 03:54 | 64.10274 | -18.32147 | 6895 ft | 143 kts | 108° |
| 2026-05-08 03:54 | 64.09887 | -18.30047 | 6895 ft | 143 kts | 108° |
| 2026-05-08 03:54 | 64.09509 | -18.27942 | 6898 ft | 143 kts | 107° |
| 2026-05-08 03:54 | 64.09155 | -18.25818 | 6894 ft | 143 kts | 107° |
| 2026-05-08 03:55 | 64.08811 | -18.23694 | 6887 ft | 143 kts | 106° |
| 2026-05-08 03:55 | 64.08467 | -18.21595 | 6879 ft | 143 kts | 106° |
| 2026-05-08 03:55 | 64.08123 | -18.19462 | 6879 ft | 143 kts | 106° |
| 2026-05-08 03:55 | 64.07757 | -18.17334 | 6877 ft | 144 kts | 106° |
| 2026-05-08 03:56 | 64.07398 | -18.15201 | 6879 ft | 144 kts | 107° |
| 2026-05-08 03:56 | 64.07043 | -18.13071 | 6879 ft | 144 kts | 106° |
| 2026-05-08 03:56 | 64.06693 | -18.10941 | 6878 ft | 143 kts | 107° |
| 2026-05-08 03:56 | 64.06340 | -18.08828 | 6873 ft | 142 kts | 107° |
| 2026-05-08 03:57 | 64.05964 | -18.06728 | 6877 ft | 143 kts | 108° |
| 2026-05-08 03:57 | 64.05584 | -18.04636 | 6874 ft | 143 kts | 109° |
| 2026-05-08 03:57 | 64.05319 | -18.03263 | 6875 ft | 143 kts | 109° |
| 2026-05-08 03:57 | 64.04925 | -18.01179 | 6877 ft | 143 kts | 108° |
| 2026-05-08 03:58 | 64.04553 | -17.99073 | 6878 ft | 142 kts | 106° |
| 2026-05-08 03:58 | 64.04209 | -17.96955 | 6874 ft | 143 kts | 106° |
| 2026-05-08 03:58 | 64.03856 | -17.94848 | 6876 ft | 141 kts | 106° |
| 2026-05-08 03:58 | 64.03521 | -17.92743 | 6875 ft | 141 kts | 107° |
| 2026-05-08 03:59 | 64.03170 | -17.90652 | 6876 ft | 142 kts | 107° |
| 2026-05-08 03:59 | 64.02820 | -17.88553 | 6876 ft | 141 kts | 106° |
| 2026-05-08 03:59 | 64.02443 | -17.86473 | 6876 ft | 142 kts | 108° |
| 2026-05-08 03:59 | 64.02055 | -17.84401 | 6872 ft | 142 kts | 108° |
| 2026-05-08 04:00 | 64.01670 | -17.82328 | 6873 ft | 142 kts | 108° |
| 2026-05-08 04:00 | 64.01299 | -17.80241 | 6861 ft | 142 kts | 107° |
| 2026-05-08 04:00 | 64.00936 | -17.78159 | 6859 ft | 141 kts | 107° |
| 2026-05-08 04:00 | 64.00587 | -17.76064 | 6856 ft | 141 kts | 107° |
| 2026-05-08 04:01 | 64.00220 | -17.73978 | 6863 ft | 142 kts | 107° |
| 2026-05-08 04:01 | 63.99864 | -17.71907 | 6786 ft | 140 kts | 108° |
| 2026-05-08 04:01 | 63.99484 | -17.69828 | 6572 ft | 147 kts | 107° |
| 2026-05-08 04:01 | 63.99100 | -17.67720 | 6484 ft | 141 kts | 107° |
| 2026-05-08 04:02 | 63.98749 | -17.65600 | 6214 ft | 145 kts | 107° |
| 2026-05-08 04:02 | 63.98397 | -17.63498 | 6117 ft | 138 kts | 107° |
| 2026-05-08 04:02 | 63.98045 | -17.61445 | 5909 ft | 141 kts | 108° |
| 2026-05-08 04:02 | 63.97681 | -17.59371 | 5746 ft | 139 kts | 108° |
| 2026-05-08 04:03 | 63.97319 | -17.57363 | 5596 ft | 137 kts | 109° |
| 2026-05-08 04:03 | 63.96595 | -17.53357 | 5269 ft | 134 kts | 110° |
| 2026-05-08 04:03 | 63.96230 | -17.51399 | 5079 ft | 136 kts | 109° |
| 2026-05-08 04:04 | 63.95882 | -17.49425 | 4934 ft | 133 kts | 109° |
| 2026-05-08 04:04 | 63.95545 | -17.47479 | 4772 ft | 133 kts | 109° |
| 2026-05-08 04:04 | 63.95198 | -17.45520 | 4627 ft | 133 kts | 110° |
| 2026-05-08 04:04 | 63.94824 | -17.43627 | 4474 ft | 131 kts | 109° |
| 2026-05-08 04:05 | 63.94452 | -17.41754 | 4320 ft | 130 kts | 108° |
| 2026-05-08 04:05 | 63.94098 | -17.39861 | 4184 ft | 129 kts | 110° |
| 2026-05-08 04:05 | 63.93965 | -17.37861 | 3941 ft | 132 kts | 72° |
| 2026-05-08 04:05 | 63.94494 | -17.36257 | 3827 ft | 126 kts | 29° |
| 2026-05-08 04:06 | 63.95319 | -17.35830 | 3749 ft | 123 kts | 8° |
| 2026-05-08 04:06 | 63.96179 | -17.35655 | 3606 ft | 122 kts | 8° |
| 2026-05-08 04:06 | 63.96995 | -17.35184 | 3357 ft | 127 kts | 35° |
| 2026-05-08 04:06 | 63.97492 | -17.33573 | 3174 ft | 127 kts | 69° |
| 2026-05-08 04:07 | 63.97706 | -17.31734 | 3260 ft | 116 kts | 75° |
| 2026-05-08 04:07 | 63.97866 | -17.29820 | 2996 ft | 130 kts | 76° |
| 2026-05-08 04:07 | 63.98021 | -17.27843 | 2946 ft | 125 kts | 76° |
| 2026-05-08 04:07 | 63.98120 | -17.25816 | 2738 ft | 132 kts | 82° |
| 2026-05-08 04:08 | 63.98083 | -17.23757 | 2626 ft | 132 kts | 98° |
| 2026-05-08 04:08 | 63.97749 | -17.21799 | 2546 ft | 133 kts | 110° |
| 2026-05-08 04:08 | 63.97397 | -17.19840 | 2465 ft | 134 kts | 105° |
| 2026-05-08 04:08 | 63.97145 | -17.17804 | 2359 ft | 134 kts | 97° |
| 2026-05-08 04:09 | 63.97027 | -17.15753 | 2370 ft | 127 kts | 92° |
| 2026-05-08 04:09 | 63.96953 | -17.13768 | 2293 ft | 126 kts | 88° |
| 2026-05-08 04:09 | 63.96963 | -17.11798 | 2314 ft | 120 kts | 88° |
| 2026-05-08 04:09 | 63.96909 | -17.09944 | 2293 ft | 114 kts | 85° |
| 2026-05-08 04:10 | 63.96845 | -17.08134 | 2152 ft | 114 kts | 87° |
| 2026-05-08 04:10 | 63.96822 | -17.06382 | 2070 ft | 109 kts | 82° |
| 2026-05-08 04:10 | 63.96794 | -17.04606 | 1877 ft | 115 kts | 85° |
| 2026-05-08 04:10 | 63.96730 | -17.02907 | 1901 ft | 101 kts | 83° |
| 2026-05-08 04:11 | 63.96759 | -17.01329 | 1838 ft | 97 kts | 75° |
| 2026-05-08 04:11 | 63.96905 | -16.99883 | 1660 ft | 97 kts | 55° |
| 2026-05-08 04:11 | 63.97354 | -16.98686 | 1379 ft | 98 kts | 44° |
| 2026-05-08 04:11 | 63.97687 | -16.97259 | 994 ft | 106 kts | 74° |
| 2026-05-08 04:12 | 63.97852 | -16.95778 | 867 ft | 95 kts | 78° |
| 2026-05-08 04:12 | 63.97862 | -16.94260 | 885 ft | 100 kts | 81° |
| 2026-05-08 04:12 | 63.97926 | -16.92694 | 953 ft | 95 kts | 60° |
| 2026-05-08 04:12 | 63.98402 | -16.92013 | 690 ft | 81 kts | 1° |
| 2026-05-08 04:13 | 63.98940 | -16.92714 | 434 ft | 104 kts | 327° |
| 2026-05-08 04:13 | 63.99508 | -16.93609 | 394 ft | 87 kts | 346° |
| 2026-05-08 04:13 | 63.99925 | -16.94084 | 392 ft | 50 kts | 344° |
| 2026-05-08 04:13 | 64.00146 | -16.94212 | 391 ft | 16 kts | 4° |
| 2026-05-08 04:14 | 64.00200 | -16.94243 | 390 ft | 0 kts | 351° |
| 2026-05-08 04:14 | 64.00231 | -16.94243 | 391 ft | 8 kts | 357° |
| 2026-05-08 04:14 | 64.00244 | -16.94279 | 391 ft | 0 kts | 267° |